Ennice, North Carolina
Current Conditions -  °F | °C
As of 12:55 PM on Tuesday 21 Oct 2014 (Local Time) from KHLX Reporting Station
Overcast Overcast  
Wind Chill: 56°   Ceiling: 4700
Heat Index: 56°   Visibility: 10mi
Dew Point: 43°   Wind: 12mph
Humidity: 62%   Direction: 270°W
Pressure: 29.95"   Gusts: NA
Location:  36.55°N, 81°W
Report Text: KHLX 211655Z AUTO 27010KT 10SM SCT033 BKN047 OVC050 14/06 A2995 RMK AO2 T01350063
Loading
Personal Weather Stations






























Interactive Weather Map
Tropical Storm Tracking
New forecast layout! Learn more

10-Day Weather Forecast

Advertisements
Track Severe Weather on mobile